Time;durP1;ratioP1;P1;durP2;ratioP2;P2;SDS_P1;SDS_P2;PMS_P1;PMS_P2;Temp;Humidity;BMP_temperature;BMP_pressure;BME280_temperature;BME280_humidity;BME280_pressure;Samples;Min_cycle;Max_cycle;Signal;HPM_P1;HPM_P2
2022/08/20 00:00:14;;;;;;;10.85;2.05;;;41.50;44.40;;;;;;5051671;28;20033;-64
2022/08/20 00:02:47;;;;;;;14.95;2.17;;;41.50;45.00;;;;;;5068007;28;20021;-65
2022/08/20 00:05:19;;;;;;;13.00;1.92;;;41.50;45.20;;;;;;5051377;28;20032;-65
2022/08/20 00:07:46;;;;;;;21.75;2.42;;;41.50;47.10;;;;;;5050676;28;20052;-62
2022/08/20 00:10:14;;;;;;;16.02;2.25;;;41.50;45.70;;;;;;5073649;28;20032;-64
2022/08/20 00:12:45;;;;;;;11.00;1.95;;;41.50;45.50;;;;;;5051486;28;20920;-65
2022/08/20 00:15:13;;;;;;;13.02;1.83;;;41.50;47.00;;;;;;5052146;28;20037;-64
2022/08/20 00:17:40;;;;;;;8.23;1.67;;;41.40;45.70;;;;;;5050418;28;20502;-64
2022/08/20 00:20:10;;;;;;;18.20;1.98;;;41.30;45.70;;;;;;5068690;28;20046;-63
2022/08/20 00:22:37;;;;;;;11.88;2.17;;;41.30;47.30;;;;;;5054926;28;20033;-63
2022/08/20 00:25:05;;;;;;;12.70;2.17;;;41.30;47.50;;;;;;5051591;28;20397;-66
2022/08/20 00:27:32;;;;;;;10.40;2.20;;;41.20;46.00;;;;;;5049925;28;20036;-64
2022/08/20 00:29:58;;;;;;;8.50;1.83;;;41.20;46.10;;;;;;5052422;28;20047;-66
2022/08/20 00:32:25;;;;;;;12.15;1.77;;;41.00;47.10;;;;;;5066116;28;20453;-64
2022/08/20 00:34:51;;;;;;;11.20;1.98;;;40.90;47.10;;;;;;5050534;28;20059;-65
2022/08/20 00:37:18;;;;;;;15.27;1.90;;;40.80;47.00;;;;;;5052455;28;20042;-65
2022/08/20 00:39:44;;;;;;;13.82;2.17;;;40.70;46.20;;;;;;5051387;28;20430;-66
2022/08/20 00:42:11;;;;;;;14.73;2.15;;;40.70;46.00;;;;;;5049459;28;20090;-63
2022/08/20 00:44:44;;;;;;;13.73;2.75;;;40.70;46.20;;;;;;5049318;28;20122;-63
2022/08/20 00:47:11;;;;;;;17.20;2.10;;;40.70;45.80;;;;;;5068344;28;20459;-63
2022/08/20 00:49:37;;;;;;;20.70;2.38;;;40.60;47.00;;;;;;5053680;28;20037;-64
2022/08/20 00:52:13;;;;;;;20.13;2.55;;;40.50;46.30;;;;;;5049377;28;20080;-65
2022/08/20 00:54:54;;;;;;;17.60;2.50;;;40.50;47.40;;;;;;5063780;28;20077;-63
2022/08/20 00:57:33;;;;;;;18.23;2.00;;;40.40;48.30;;;;;;5065721;28;20126;-65
2022/08/20 01:00:02;;;;;;;16.33;1.88;;;40.40;48.10;;;;;;5062530;28;20053;-64
2022/08/20 01:02:30;;;;;;;8.77;1.70;;;40.30;47.20;;;;;;5066577;28;20038;-64
2022/08/20 01:04:57;;;;;;;12.23;2.40;;;40.30;47.00;;;;;;5054468;28;20510;-63
2022/08/20 01:07:33;;;;;;;11.80;2.20;;;40.20;48.90;;;;;;5048210;28;20113;-65
2022/08/20 01:10:14;;;;;;;17.02;1.98;;;40.10;48.10;;;;;;5049965;28;20055;-65
2022/08/20 01:12:45;;;;;;;22.00;2.05;;;40.10;47.70;;;;;;5050993;28;20518;-66
2022/08/20 01:15:15;;;;;;;10.90;2.25;;;40.00;48.00;;;;;;5049445;28;20128;-64
2022/08/20 01:17:48;;;;;;;11.70;2.42;;;39.90;47.80;;;;;;5064308;28;20060;-63
2022/08/20 01:20:23;;;;;;;12.93;2.00;;;40.00;49.20;;;;;;5050209;28;20505;-65
2022/08/20 01:25:48;;;;;;;10.30;2.17;;;39.80;48.10;;;;;;5053118;28;20052;-65
2022/08/20 01:28:21;;;;;;;12.88;2.13;;;39.70;47.90;;;;;;5049736;28;20062;-66
2022/08/20 01:30:48;;;;;;;10.85;2.28;;;39.60;49.60;;;;;;5047427;28;20038;-66
2022/08/20 01:33:16;;;;;;;8.45;1.70;;;39.60;48.70;;;;;;5057430;28;20071;-63
2022/08/20 01:35:43;;;;;;;12.65;2.20;;;39.50;48.50;;;;;;5050308;28;20040;-68
2022/08/20 01:38:11;;;;;;;22.05;2.38;;;39.50;50.20;;;;;;5063942;28;20047;-66
2022/08/20 01:41:09;;;;;;;15.48;2.00;;;39.50;49.00;;;;;;5050562;28;20071;-66
2022/08/20 01:43:37;;;;;;;12.38;1.70;;;39.30;49.50;;;;;;5063651;28;20105;-65
2022/08/20 01:46:03;;;;;;;20.65;2.67;;;39.20;50.10;;;;;;5064546;28;20069;-66
2022/08/20 01:48:30;;;;;;;15.20;2.78;;;39.20;51.00;;;;;;5050361;28;20089;-65
2022/08/20 01:51:10;;;;;;;15.43;2.25;;;39.20;49.50;;;;;;5049676;28;20129;-63
2022/08/20 01:53:43;;;;;;;13.93;1.92;;;39.20;51.90;;;;;;5045501;28;20044;-66
2022/08/20 01:56:15;;;;;;;13.27;1.88;;;39.00;49.40;;;;;;5048325;28;20048;-64
2022/08/20 01:58:48;;;;;;;13.05;1.88;;;39.00;49.90;;;;;;5048164;28;20505;-67
2022/08/20 02:01:24;;;;;;;15.32;2.10;;;39.00;49.20;;;;;;5053822;28;20071;-65
2022/08/20 02:03:51;;;;;;;16.13;1.92;;;38.90;49.40;;;;;;5066458;28;20041;-66
2022/08/20 02:06:17;;;;;;;16.80;2.25;;;38.90;49.20;;;;;;5048218;28;20113;-65
2022/08/20 02:08:44;;;;;;;13.52;1.90;;;38.80;49.80;;;;;;5054331;28;20051;-64
2022/08/20 02:11:11;;;;;;;19.00;2.70;;;38.80;50.20;;;;;;5049427;28;20064;-64
2022/08/20 02:13:39;;;;;;;20.05;5.05;;;38.80;49.80;;;;;;5048597;28;20048;-63
2022/08/20 02:16:06;;;;;;;17.85;2.65;;;38.70;49.60;;;;;;5049707;28;20173;-63
2022/08/20 02:18:33;;;;;;;11.18;1.80;;;38.60;49.60;;;;;;5045974;28;20074;-64
2022/08/20 02:21:00;;;;;;;11.75;1.83;;;38.60;49.60;;;;;;5047504;28;20077;-68
2022/08/20 02:23:26;;;;;;;11.50;1.90;;;38.50;49.70;;;;;;5063707;28;20066;-65
2022/08/20 02:25:53;;;;;;;16.95;2.70;;;38.50;50.10;;;;;;5048152;28;21139;-65
2022/08/20 02:28:20;;;;;;;22.73;2.80;;;38.40;49.90;;;;;;5049106;28;20520;-66
2022/08/20 02:30:51;;;;;;;22.30;3.58;;;38.30;49.80;;;;;;5048603;28;20455;-63
2022/08/20 02:33:21;;;;;;;19.77;3.72;;;38.30;50.00;;;;;;5048437;28;20422;-63
2022/08/20 02:35:49;;;;;;;16.40;2.90;;;38.30;49.90;;;;;;5063327;28;20855;-66
2022/08/20 02:38:16;;;;;;;22.88;2.72;;;38.30;50.00;;;;;;5059654;28;20073;-65
2022/08/20 02:40:45;;;;;;;16.95;2.22;;;38.20;50.10;;;;;;5054752;28;20056;-64
2022/08/20 02:43:13;;;;;;;24.27;2.80;;;38.20;50.90;;;;;;5047380;28;20056;-65
2022/08/20 02:45:42;;;;;;;20.45;2.95;;;38.10;51.00;;;;;;5042727;28;20079;-63
2022/08/20 02:48:19;;;;;;;21.35;3.17;;;38.10;51.50;;;;;;5045959;28;20481;-66
2022/08/20 02:50:55;;;;;;;17.48;2.60;;;38.00;51.60;;;;;;5048567;28;20049;-65
2022/08/20 02:53:25;;;;;;;23.02;2.85;;;38.00;52.20;;;;;;5050086;28;20059;-66
2022/08/20 02:55:52;;;;;;;42.72;3.10;;;37.90;52.50;;;;;;5045846;28;20047;-63
2022/08/20 02:58:20;;;;;;;24.15;2.78;;;37.80;54.00;;;;;;5063434;28;20141;-65
2022/08/20 03:00:47;;;;;;;19.63;3.13;;;37.60;54.90;;;;;;5063654;28;20046;-66
2022/08/20 03:03:21;;;;;;;28.48;3.05;;;37.60;55.50;;;;;;5047835;28;20461;-66
2022/08/20 03:05:50;;;;;;;24.65;3.17;;;37.50;55.20;;;;;;5046493;28;20051;-64
2022/08/20 03:08:17;;;;;;;22.50;2.33;;;37.40;56.80;;;;;;5047595;28;20467;-64
2022/08/20 03:10:46;;;;;;;19.80;2.65;;;37.30;57.10;;;;;;5046292;28;20516;-66
2022/08/20 03:13:14;;;;;;;25.77;3.13;;;37.20;57.70;;;;;;5046887;28;20101;-65
2022/08/20 03:15:44;;;;;;;23.05;2.95;;;37.00;58.30;;;;;;5046137;28;20053;-63
2022/08/20 03:18:11;;;;;;;26.67;3.05;;;36.90;59.30;;;;;;5047655;28;20070;-66
2022/08/20 03:20:38;;;;;;;25.95;3.22;;;36.70;59.50;;;;;;5046889;28;20046;-66
2022/08/20 03:23:04;;;;;;;18.85;2.40;;;36.70;59.70;;;;;;5046278;28;20115;-65
2022/08/20 03:25:32;;;;;;;25.98;3.38;;;36.60;59.70;;;;;;5046786;28;20883;-64
2022/08/20 03:27:58;;;;;;;28.05;2.50;;;36.50;60.50;;;;;;5048563;28;20531;-65
2022/08/20 03:30:27;;;;;;;19.38;2.42;;;36.30;60.50;;;;;;5063527;28;20069;-67
2022/08/20 03:32:54;;;;;;;25.27;2.25;;;36.30;61.10;;;;;;5046596;28;20060;-65
2022/08/20 03:35:23;;;;;;;20.65;2.50;;;36.20;61.60;;;;;;5050189;28;20052;-65
2022/08/20 03:37:50;;;;;;;24.50;2.50;;;36.10;62.00;;;;;;5048370;28;20588;-64
2022/08/20 03:40:22;;;;;;;18.73;2.45;;;36.00;62.30;;;;;;5048493;28;20124;-65
2022/08/20 03:42:51;;;;;;;17.25;1.95;;;35.90;62.80;;;;;;5060509;28;20062;-64
2022/08/20 03:45:19;;;;;;;19.35;2.33;;;35.90;63.10;;;;;;5048529;28;20062;-65
2022/08/20 03:47:46;;;;;;;23.23;2.30;;;35.80;63.40;;;;;;5052662;28;20213;-65
2022/08/20 03:50:12;;;;;;;14.98;1.85;;;35.70;63.50;;;;;;5052164;28;20341;-65
2022/08/20 03:52:39;;;;;;;23.15;2.60;;;35.60;64.70;;;;;;5066903;28;20057;-65
2022/08/20 03:55:08;;;;;;;24.20;3.25;;;35.50;64.00;;;;;;5053869;28;20430;-65
2022/08/20 03:57:34;;;;;;;20.38;2.67;;;35.40;64.60;;;;;;5049409;28;20080;-65
2022/08/20 04:00:04;;;;;;;25.92;3.58;;;35.30;65.10;;;;;;5049621;28;20083;-66
2022/08/20 04:02:30;;;;;;;27.70;2.80;;;35.30;65.80;;;;;;5050713;28;20085;-66
2022/08/20 04:04:57;;;;;;;20.75;2.83;;;35.20;66.20;;;;;;5050229;28;20073;-65
2022/08/20 04:07:25;;;;;;;37.38;2.97;;;35.10;66.60;;;;;;5050323;28;20116;-66
2022/08/20 04:09:55;;;;;;;21.58;2.50;;;35.00;66.80;;;;;;5049518;28;20153;-66
2022/08/20 04:12:24;;;;;;;30.67;2.83;;;34.90;67.30;;;;;;5064201;28;20549;-66
2022/08/20 04:14:51;;;;;;;31.80;2.63;;;34.80;67.40;;;;;;5057670;28;20172;-68
2022/08/20 04:17:19;;;;;;;23.13;2.38;;;34.70;67.70;;;;;;5050229;28;20085;-67
2022/08/20 04:19:46;;;;;;;35.75;2.97;;;34.60;68.00;;;;;;5050320;28;20086;-66
2022/08/20 04:22:13;;;;;;;27.52;2.70;;;34.60;68.60;;;;;;5066249;28;20065;-65
2022/08/20 04:24:41;;;;;;;30.35;2.35;;;34.60;68.40;;;;;;5049540;28;20106;-67
2022/08/20 04:27:09;;;;;;;21.33;2.50;;;34.60;68.10;;;;;;5050057;28;20089;-66
2022/08/20 04:29:41;;;;;;;19.58;2.67;;;34.50;68.10;;;;;;5049102;28;20074;-65
2022/08/20 04:32:08;;;;;;;30.67;3.88;;;34.40;68.70;;;;;;5049727;28;20097;-67
2022/08/20 04:34:35;;;;;;;39.83;2.80;;;34.40;69.10;;;;;;5051778;28;20065;-68
2022/08/20 04:37:01;;;;;;;22.15;2.35;;;34.30;68.60;;;;;;5066089;28;20111;-67
2022/08/20 04:39:28;;;;;;;27.90;2.88;;;34.20;69.20;;;;;;5066368;28;20111;-69
2022/08/20 04:41:54;;;;;;;25.00;3.92;;;34.20;69.50;;;;;;5050667;28;20070;-64
2022/08/20 04:44:21;;;;;;;22.80;4.90;;;34.10;69.60;;;;;;5050485;28;20095;-69
2022/08/20 04:46:48;;;;;;;38.45;6.20;;;34.10;70.00;;;;;;5048214;28;20088;-67
2022/08/20 04:49:14;;;;;;;24.60;4.40;;;34.00;70.40;;;;;;5050597;28;20100;-66
2022/08/20 04:51:41;;;;;;;16.20;3.83;;;34.00;70.00;;;;;;5051226;28;20081;-68
2022/08/20 04:54:07;;;;;;;22.67;3.17;;;33.90;70.60;;;;;;5048852;28;20063;-66
2022/08/20 04:56:38;;;;;;;29.67;3.22;;;33.90;69.90;;;;;;5045950;28;20418;-66
2022/08/20 04:59:06;;;;;;;29.55;2.53;;;33.90;70.30;;;;;;5050266;28;20168;-68
2022/08/20 05:01:33;;;;;;;24.45;2.88;;;33.80;70.50;;;;;;5050439;28;20068;-67
2022/08/20 05:04:00;;;;;;;27.73;2.72;;;33.80;70.10;;;;;;5052657;28;20092;-66
2022/08/20 05:06:31;;;;;;;24.60;2.75;;;33.80;70.60;;;;;;5065695;28;20176;-67
2022/08/20 05:08:59;;;;;;;29.20;2.80;;;33.70;70.00;;;;;;5049338;28;20070;-67
2022/08/20 05:11:26;;;;;;;25.98;3.22;;;33.70;70.20;;;;;;5049224;28;20716;-67
2022/08/20 05:13:56;;;;;;;35.83;3.97;;;33.70;70.30;;;;;;5048714;28;20073;-69
2022/08/20 05:16:23;;;;;;;31.05;3.60;;;33.60;69.60;;;;;;5051885;28;20519;-69
2022/08/20 05:18:50;;;;;;;25.90;3.72;;;33.60;69.70;;;;;;5048625;28;20096;-68
2022/08/20 05:21:17;;;;;;;38.10;5.35;;;33.60;69.50;;;;;;5050788;28;20069;-68
2022/08/20 05:23:44;;;;;;;47.47;6.95;;;33.60;69.20;;;;;;5050375;28;20408;-68
2022/08/20 05:26:11;;;;;;;34.42;9.02;;;33.50;68.60;;;;;;5048925;28;20146;-68
2022/08/20 05:28:39;;;;;;;36.80;9.35;;;33.40;68.40;;;;;;5048917;28;20527;-66
2022/08/20 05:31:08;;;;;;;34.97;9.70;;;33.50;67.80;;;;;;5058990;28;20072;-67
2022/08/20 05:33:37;;;;;;;41.15;8.95;;;33.40;67.00;;;;;;5048906;28;20239;-67
2022/08/20 05:36:05;;;;;;;39.20;8.43;;;33.40;66.10;;;;;;5049384;28;20090;-69
2022/08/20 05:38:33;;;;;;;23.98;4.88;;;33.40;65.40;;;;;;5049471;28;20103;-68
2022/08/20 05:41:01;;;;;;;27.48;4.78;;;33.40;65.60;;;;;;5050400;28;20154;-65
2022/08/20 05:43:27;;;;;;;25.00;3.35;;;33.40;65.20;;;;;;5049770;28;20439;-66
2022/08/20 05:45:57;;;;;;;13.68;3.03;;;33.50;64.80;;;;;;5063682;28;20099;-66
2022/08/20 05:48:24;;;;;;;27.75;3.15;;;33.40;64.70;;;;;;5048158;28;20448;-64
2022/08/20 05:50:53;;;;;;;19.05;3.13;;;33.40;64.90;;;;;;5049492;28;20085;-67
2022/08/20 05:53:20;;;;;;;32.85;4.72;;;33.40;65.00;;;;;;5048868;28;20084;-67
2022/08/20 05:55:48;;;;;;;23.15;5.32;;;33.40;64.80;;;;;;5050294;28;20098;-68
2022/08/20 05:58:25;;;;;;;27.13;4.85;;;33.40;64.90;;;;;;5048230;28;20463;-66
2022/08/20 06:00:56;;;;;;;29.50;4.85;;;33.40;65.00;;;;;;5048721;28;20472;-60
2022/08/20 06:06:08;;;;;;;16.98;3.72;;;33.30;65.40;;;;;;5050248;28;20091;-63
2022/08/20 06:08:35;;;;;;;18.27;3.50;;;33.30;65.80;;;;;;5064509;28;20065;-67
2022/08/20 06:11:02;;;;;;;16.83;3.40;;;33.30;65.90;;;;;;5047746;28;20171;-67
2022/08/20 06:13:29;;;;;;;16.48;3.28;;;33.30;66.20;;;;;;5047276;28;20433;-63
2022/08/20 06:15:56;;;;;;;12.80;2.20;;;33.20;66.40;;;;;;5065502;28;20092;-68
2022/08/20 06:18:23;;;;;;;11.63;1.67;;;33.20;66.70;;;;;;5050047;28;20194;-67
2022/08/20 06:20:50;;;;;;;7.93;1.58;;;33.20;66.90;;;;;;5051164;28;20068;-67
2022/08/20 06:23:17;;;;;;;13.65;2.22;;;33.10;67.40;;;;;;5052137;28;20075;-67
2022/08/20 06:25:45;;;;;;;14.95;2.10;;;33.10;68.00;;;;;;5050103;28;20092;-66
2022/08/20 06:28:13;;;;;;;18.80;2.42;;;33.10;68.60;;;;;;5047445;28;20518;-68
2022/08/20 06:30:39;;;;;;;14.32;2.33;;;33.00;69.00;;;;;;5055938;28;20163;-68
2022/08/20 06:33:06;;;;;;;12.13;2.28;;;33.00;69.50;;;;;;5050087;28;20153;-67
2022/08/20 06:35:33;;;;;;;14.57;2.00;;;33.00;70.30;;;;;;5052703;28;20103;-67
2022/08/20 06:38:00;;;;;;;13.90;1.90;;;32.90;71.30;;;;;;5048255;28;20176;-66
2022/08/20 06:40:28;;;;;;;8.00;2.08;;;32.90;72.30;;;;;;5067269;28;20111;-67
2022/08/20 06:42:56;;;;;;;8.77;1.88;;;32.80;72.40;;;;;;5048306;28;20120;-66
2022/08/20 06:45:26;;;;;;;12.18;2.63;;;32.80;72.50;;;;;;5048747;28;20071;-68
2022/08/20 06:47:56;;;;;;;14.52;2.22;;;32.80;72.90;;;;;;5052728;28;20095;-66
2022/08/20 06:50:26;;;;;;;13.20;2.47;;;32.70;73.30;;;;;;5046020;28;20129;-67
2022/08/20 06:52:55;;;;;;;18.60;2.72;;;32.70;73.60;;;;;;5066089;28;20075;-68
2022/08/20 06:55:22;;;;;;;9.70;2.38;;;32.70;73.70;;;;;;5047747;28;20069;-67
2022/08/20 06:58:07;;;;;;;9.15;2.45;;;32.60;73.70;;;;;;5047509;28;20477;-68
2022/08/20 07:00:36;;;;;;;18.17;1.98;;;32.60;74.10;;;;;;5062965;28;20605;-66
2022/08/20 07:03:03;;;;;;;11.60;2.25;;;32.60;74.50;;;;;;5062530;28;20094;-67
2022/08/20 07:05:36;;;;;;;17.00;2.92;;;32.60;74.70;;;;;;5049610;28;20163;-68
2022/08/20 07:08:04;;;;;;;9.00;1.70;;;32.50;75.30;;;;;;5051329;28;20546;-68
2022/08/20 07:10:31;;;;;;;25.88;2.50;;;32.50;76.50;;;;;;5048486;28;20069;-64
2022/08/20 07:12:58;;;;;;;14.20;2.47;;;32.40;78.10;;;;;;5046935;28;20071;-67
2022/08/20 07:15:26;;;;;;;38.25;2.92;;;32.40;81.00;;;;;;5062289;28;20118;-69
2022/08/20 07:17:55;;;;;;;35.35;2.47;;;32.10;85.30;;;;;;5053348;28;20612;-67
2022/08/20 07:20:23;;;;;;;30.33;2.60;;;32.10;87.20;;;;;;5046710;28;20076;-67
2022/08/20 07:22:49;;;;;;;37.10;2.45;;;32.00;88.80;;;;;;5051326;28;20446;-69
2022/08/20 07:25:17;;;;;;;52.83;4.25;;;32.00;90.00;;;;;;5051202;28;20084;-65
2022/08/20 07:27:45;;;;;;;34.92;3.40;;;31.90;90.70;;;;;;5052604;28;20465;-65
2022/08/20 07:33:01;;;;;;;24.70;2.83;;;31.80;91.60;;;;;;5051561;28;20075;-67
2022/08/20 07:35:28;;;;;;;31.33;2.90;;;31.80;91.80;;;;;;5051880;28;20067;-65
2022/08/20 07:37:55;;;;;;;27.88;2.80;;;31.70;92.10;;;;;;5050949;28;20076;-67
2022/08/20 07:40:30;;;;;;;20.45;2.20;;;31.60;92.30;;;;;;5051402;28;20223;-67
2022/08/20 07:43:01;;;;;;;15.40;2.17;;;31.70;92.50;;;;;;5050117;28;20071;-68
2022/08/20 07:45:29;;;;;;;25.00;2.58;;;31.70;92.60;;;;;;5050024;28;20125;-67
2022/08/20 07:48:10;;;;;;;21.55;2.60;;;31.60;92.90;;;;;;5065858;28;20105;-67
2022/08/20 07:50:37;;;;;;;18.63;2.17;;;31.60;93.30;;;;;;5065962;28;20119;-69
2022/08/20 07:53:04;;;;;;;19.20;2.45;;;31.60;93.60;;;;;;5049821;28;20429;-67
2022/08/20 07:55:31;;;;;;;16.42;2.38;;;31.60;93.90;;;;;;5054387;28;20526;-65
2022/08/20 07:58:05;;;;;;;13.05;1.67;;;31.50;94.30;;;;;;5050358;28;20115;-66
2022/08/20 08:00:32;;;;;;;14.40;1.95;;;31.50;94.60;;;;;;5049071;28;20078;-65
2022/08/20 08:02:59;;;;;;;14.43;1.85;;;31.50;95.10;;;;;;5050911;28;20461;-65
2022/08/20 08:05:26;;;;;;;12.57;1.60;;;31.50;95.60;;;;;;5049501;28;20133;-67
2022/08/20 08:07:52;;;;;;;17.13;1.65;;;31.40;95.90;;;;;;5048776;28;20179;-68
2022/08/20 08:10:22;;;;;;;14.73;1.67;;;31.40;96.20;;;;;;5049736;28;20118;-66
2022/08/20 08:12:54;;;;;;;16.92;2.13;;;31.40;96.70;;;;;;5054669;28;20081;-66
2022/08/20 08:15:27;;;;;;;140.73;9.80;;;31.30;97.10;;;;;;5050447;28;20171;-67
2022/08/20 08:17:57;;;;;;;169.15;12.98;;;31.20;94.00;;;;;;5051509;28;20092;-67
2022/08/20 08:20:24;;;;;;;271.45;21.58;;;31.10;92.50;;;;;;5051108;28;20163;-65
2022/08/20 08:22:51;;;;;;;273.60;20.30;;;30.80;89.90;;;;;;5066442;28;20167;-66
2022/08/20 08:25:17;;;;;;;235.88;18.33;;;30.80;89.50;;;;;;5049763;28;20527;-66
2022/08/20 08:27:47;;;;;;;217.88;14.88;;;30.80;90.00;;;;;;5050304;28;20107;-63
2022/08/20 08:30:15;;;;;;;215.57;16.45;;;30.70;90.50;;;;;;5065413;28;20079;-64
2022/08/20 08:35:27;;;;;;;142.43;12.38;;;30.60;90.50;;;;;;5050396;28;20172;-67
2022/08/20 08:37:54;;;;;;;164.85;14.30;;;30.60;90.40;;;;;;5050520;28;20159;-60
2022/08/20 08:40:21;;;;;;;152.07;12.13;;;30.60;90.40;;;;;;5054164;28;20186;-60
2022/08/20 08:42:56;;;;;;;140.98;12.57;;;30.50;90.40;;;;;;5050963;28;20541;-60
2022/08/20 08:45:28;;;;;;;135.38;11.80;;;30.50;90.50;;;;;;5066408;28;20442;-60
2022/08/20 08:47:57;;;;;;;146.00;11.85;;;30.40;90.50;;;;;;5051517;28;20501;-60
2022/08/20 08:50:28;;;;;;;123.32;10.90;;;30.20;91.00;;;;;;5050564;28;20065;-58
2022/08/20 08:52:58;;;;;;;135.85;9.35;;;30.20;91.70;;;;;;5050522;28;20119;-58
2022/08/20 08:55:26;;;;;;;149.10;9.63;;;30.20;92.00;;;;;;5031806;28;20428;-59
2022/08/20 08:57:55;;;;;;;125.35;8.55;;;30.00;91.90;;;;;;5050653;28;20072;-59
2022/08/20 09:00:22;;;;;;;152.27;10.45;;;29.90;91.70;;;;;;5046897;28;20091;-60
2022/08/20 09:03:00;;;;;;;114.07;8.65;;;29.90;91.80;;;;;;5048739;28;20102;-59
2022/08/20 09:05:52;;;;;;;102.95;7.10;;;29.70;92.10;;;;;;5049192;28;20087;-59
2022/08/20 09:08:24;;;;;;;90.47;6.38;;;29.60;92.20;;;;;;5047679;28;20607;-59
2022/08/20 09:10:51;;;;;;;76.03;6.25;;;29.50;92.10;;;;;;5049453;28;20076;-60
2022/08/20 09:13:18;;;;;;;89.47;6.90;;;29.40;92.10;;;;;;5052715;28;20160;-59
2022/08/20 09:15:45;;;;;;;74.82;6.13;;;29.40;92.10;;;;;;5066660;28;20084;-60
2022/08/20 09:18:11;;;;;;;67.88;6.15;;;29.40;92.10;;;;;;5049248;28;20095;-61
2022/08/20 09:20:37;;;;;;;76.63;6.50;;;29.40;92.00;;;;;;5049012;28;20079;-59
2022/08/20 09:23:07;;;;;;;70.20;7.65;;;29.40;91.60;;;;;;5048749;28;20126;-59
2022/08/20 09:25:33;;;;;;;61.17;5.80;;;29.30;91.40;;;;;;5050083;28;20076;-59
2022/08/20 09:28:00;;;;;;;72.30;7.28;;;29.30;91.30;;;;;;5049812;28;20088;-59
2022/08/20 09:30:26;;;;;;;90.05;7.90;;;29.30;91.30;;;;;;5064413;28;20488;-61
2022/08/20 09:32:53;;;;;;;115.72;8.60;;;29.20;91.20;;;;;;5048187;28;20163;-60
2022/08/20 09:35:19;;;;;;;85.72;7.38;;;29.20;91.20;;;;;;5048509;28;20674;-60
2022/08/20 09:37:46;;;;;;;75.35;8.15;;;29.20;91.40;;;;;;5049815;28;20075;-59
2022/08/20 09:40:12;;;;;;;71.18;6.82;;;29.20;91.60;;;;;;5048226;28;20435;-60
2022/08/20 09:42:39;;;;;;;78.93;6.25;;;29.20;92.10;;;;;;5048470;28;20072;-60
2022/08/20 09:45:06;;;;;;;77.78;6.70;;;29.10;92.40;;;;;;5048018;28;20087;-60
2022/08/20 09:47:32;;;;;;;66.80;6.43;;;29.20;92.70;;;;;;5048153;28;20477;-59
2022/08/20 09:49:59;;;;;;;99.82;8.60;;;29.10;92.90;;;;;;5049541;28;20072;-61
2022/08/20 09:52:29;;;;;;;94.25;7.72;;;29.10;93.20;;;;;;5049677;28;20144;-59
2022/08/20 09:54:59;;;;;;;84.28;7.78;;;29.10;93.50;;;;;;5064071;28;20141;-60
2022/08/20 09:57:26;;;;;;;74.68;7.55;;;29.00;93.80;;;;;;5050092;28;20069;-60
2022/08/20 10:00:01;;;;;;;76.72;7.00;;;29.00;94.10;;;;;;5048444;28;20087;-60
2022/08/20 10:02:27;;;;;;;70.05;8.32;;;29.00;94.40;;;;;;5046581;28;20070;-62
2022/08/20 10:04:54;;;;;;;67.18;8.05;;;29.00;94.50;;;;;;5047244;28;20079;-62
2022/08/20 10:07:20;;;;;;;47.42;6.10;;;29.00;94.90;;;;;;5046316;28;20134;-59
2022/08/20 10:09:46;;;;;;;32.30;3.95;;;28.90;95.10;;;;;;5048695;28;20076;-59
2022/08/20 10:12:13;;;;;;;37.47;3.55;;;28.90;95.30;;;;;;5047818;28;20073;-60
2022/08/20 10:14:39;;;;;;;25.63;3.10;;;29.00;95.40;;;;;;5063724;28;20739;-59
2022/08/20 10:17:06;;;;;;;28.35;3.22;;;29.00;95.40;;;;;;5047295;28;20080;-60
2022/08/20 10:19:32;;;;;;;16.73;2.97;;;29.00;95.40;;;;;;5048042;28;20076;-59
2022/08/20 10:21:59;;;;;;;11.73;1.92;;;29.00;95.40;;;;;;5048439;28;20076;-60
2022/08/20 10:24:26;;;;;;;16.95;1.90;;;29.00;95.40;;;;;;5049681;28;20079;-59
2022/08/20 10:26:58;;;;;;;12.25;2.00;;;29.10;95.60;;;;;;5047599;28;20230;-59
2022/08/20 10:29:26;;;;;;;16.08;2.05;;;29.10;95.70;;;;;;5048849;28;20098;-59
2022/08/20 10:31:53;;;;;;;13.50;1.67;;;29.10;95.90;;;;;;5064016;28;20064;-60
2022/08/20 10:34:20;;;;;;;14.45;1.85;;;29.10;95.90;;;;;;5047297;28;20064;-62
2022/08/20 10:36:46;;;;;;;28.55;1.73;;;29.10;95.80;;;;;;5047714;28;20536;-60
2022/08/20 10:39:13;;;;;;;21.48;1.60;;;29.10;95.80;;;;;;5063840;28;20108;-60
2022/08/20 10:41:40;;;;;;;10.48;1.27;;;29.10;95.80;;;;;;5064261;28;20438;-60
2022/08/20 10:44:06;;;;;;;13.50;1.63;;;29.20;95.80;;;;;;5047361;28;20096;-61
2022/08/20 10:46:33;;;;;;;13.45;1.98;;;29.20;95.60;;;;;;5047298;28;20088;-60
2022/08/20 10:48:59;;;;;;;14.73;1.70;;;29.20;95.50;;;;;;5047026;28;20550;-59
2022/08/20 10:51:25;;;;;;;15.20;1.70;;;29.30;95.50;;;;;;5055885;28;20505;-58
2022/08/20 10:53:52;;;;;;;11.07;1.45;;;29.30;95.20;;;;;;5048921;28;20068;-60
2022/08/20 10:56:18;;;;;;;13.00;1.60;;;29.30;95.10;;;;;;5049022;28;20088;-60
2022/08/20 10:58:45;;;;;;;16.02;1.92;;;29.30;94.90;;;;;;5051302;28;20072;-59
2022/08/20 11:01:11;;;;;;;7.70;1.10;;;29.30;94.30;;;;;;5067698;28;20534;-59
2022/08/20 11:03:37;;;;;;;12.13;1.25;;;29.40;94.00;;;;;;5049827;28;20080;-59
2022/08/20 11:06:04;;;;;;;11.32;1.30;;;29.40;93.60;;;;;;5050891;28;20092;-60
2022/08/20 11:08:30;;;;;;;9.68;1.30;;;29.50;93.30;;;;;;5051101;28;20080;-60
2022/08/20 11:10:57;;;;;;;12.52;1.40;;;29.60;93.30;;;;;;5049746;28;20546;-59
2022/08/20 11:13:23;;;;;;;12.60;1.38;;;29.60;92.90;;;;;;5053707;28;20573;-59
2022/08/20 11:15:50;;;;;;;21.05;2.03;;;29.60;92.80;;;;;;5050795;28;20081;-59
2022/08/20 11:18:16;;;;;;;19.15;1.90;;;29.70;92.80;;;;;;5051035;28;20439;-59
2022/08/20 11:20:42;;;;;;;9.48;1.92;;;29.80;92.60;;;;;;5051340;28;20198;-59
2022/08/20 11:23:09;;;;;;;21.45;1.92;;;29.80;92.80;;;;;;5067562;28;20179;-59
2022/08/20 11:25:35;;;;;;;20.70;2.05;;;29.80;92.30;;;;;;5050831;28;21186;-62
2022/08/20 11:28:02;;;;;;;14.93;2.30;;;29.90;92.30;;;;;;5066950;28;20080;-60
2022/08/20 11:30:31;;;;;;;11.43;1.85;;;29.90;92.10;;;;;;5050977;28;20080;-60
2022/08/20 11:32:58;;;;;;;12.25;2.15;;;29.90;92.00;;;;;;5050246;28;20082;-60
2022/08/20 11:35:27;;;;;;;11.00;1.85;;;29.80;91.90;;;;;;5051988;28;20065;-59
2022/08/20 11:37:54;;;;;;;16.23;2.00;;;29.90;91.80;;;;;;5051149;28;20081;-60
2022/08/20 11:40:22;;;;;;;8.10;1.85;;;29.90;91.80;;;;;;5050261;28;20104;-59
2022/08/20 11:42:48;;;;;;;14.07;2.50;;;29.90;92.20;;;;;;5050597;28;20593;-60
2022/08/20 11:45:15;;;;;;;10.07;1.70;;;29.90;91.70;;;;;;5050187;28;20191;-59
2022/08/20 11:47:42;;;;;;;10.70;2.25;;;30.00;91.70;;;;;;5050530;28;20120;-58
2022/08/20 11:50:14;;;;;;;12.57;2.70;;;30.00;91.50;;;;;;5052582;28;20080;-60
2022/08/20 11:52:41;;;;;;;17.13;2.28;;;30.00;91.40;;;;;;5066506;28;20096;-59
2022/08/20 11:55:10;;;;;;;11.18;1.85;;;30.00;91.30;;;;;;5049970;28;20159;-59
2022/08/20 11:57:40;;;;;;;19.33;2.90;;;30.10;91.30;;;;;;5050430;28;20437;-59
2022/08/20 12:00:12;;;;;;;16.08;4.22;;;30.00;91.30;;;;;;5050748;28;20088;-59
2022/08/20 12:02:39;;;;;;;19.38;4.97;;;30.00;91.30;;;;;;5065103;28;20072;-59
2022/08/20 12:05:06;;;;;;;21.40;5.60;;;30.00;91.30;;;;;;5052758;28;20088;-59
2022/08/20 12:07:33;;;;;;;21.83;8.10;;;30.10;91.40;;;;;;5049040;28;20092;-59
2022/08/20 12:09:59;;;;;;;28.00;9.48;;;30.00;91.40;;;;;;5051327;28;20104;-58
2022/08/20 12:12:25;;;;;;;27.33;9.95;;;30.00;91.50;;;;;;5067191;28;20163;-59
2022/08/20 12:14:53;;;;;;;25.65;9.77;;;30.00;91.50;;;;;;5066012;28;20072;-57
2022/08/20 12:17:24;;;;;;;31.88;10.13;;;30.00;91.60;;;;;;5051502;28;20095;-58
2022/08/20 12:19:53;;;;;;;27.52;10.10;;;30.00;91.60;;;;;;5051472;28;20143;-61
2022/08/20 12:22:20;;;;;;;32.55;10.13;;;30.00;91.60;;;;;;5067287;28;20072;-58
2022/08/20 12:24:47;;;;;;;27.33;9.57;;;30.00;91.60;;;;;;5050009;28;20620;-59
2022/08/20 12:27:26;;;;;;;29.75;9.40;;;30.00;91.60;;;;;;5066303;28;20169;-60
2022/08/20 12:29:55;;;;;;;26.27;8.60;;;30.00;91.60;;;;;;5048438;28;20601;-58
2022/08/20 12:32:23;;;;;;;20.08;7.47;;;30.10;91.70;;;;;;5049793;28;20079;-58
2022/08/20 12:34:50;;;;;;;25.80;8.07;;;30.10;91.90;;;;;;5050024;28;20546;-58
2022/08/20 12:37:21;;;;;;;22.23;6.68;;;30.20;92.00;;;;;;5048346;28;20081;-58
2022/08/20 12:39:50;;;;;;;19.63;5.85;;;30.20;92.00;;;;;;5049161;28;20195;-58
2022/08/20 12:42:17;;;;;;;18.17;5.20;;;30.20;91.90;;;;;;5049354;28;20076;-58
2022/08/20 12:44:43;;;;;;;25.88;5.97;;;30.20;91.80;;;;;;5049744;28;20108;-59
2022/08/20 12:47:14;;;;;;;12.75;4.65;;;30.20;91.40;;;;;;5049234;28;20085;-59
2022/08/20 12:49:47;;;;;;;12.20;2.10;;;30.20;91.60;;;;;;5066079;28;20077;-58
2022/08/20 12:52:14;;;;;;;9.80;2.05;;;30.20;91.70;;;;;;5050485;28;20073;-59